Bieber, California
Current Conditions -  °F | °C
As of 3:55 AM on Thursday 27 Nov 2014 (Local Time) from KAAT Reporting Station
Clear Clear  
Wind Chill: 31°   Ceiling: Unl
Heat Index: 35°   Visibility: 10mi
Dew Point: 32°   Wind: 5mph
Humidity: 89%   Direction: 10°N
Pressure: 30.23"   Gusts: NA
Location:  41.12°N, 121.15°W
Report Text: KAAT 271155Z AUTO 01004KT 10SM CLR 02/00 A3023 RMK AO2 SLP241 T00170000 10033 20006 58006
Loading
Personal Weather Stations






























Interactive Weather Map New forecast layout! Learn more

10-Day Weather Forecast

Advertisements
Track Severe Weather on mobile